createdAt,value
2018-11-10T00:01:28.863Z,88.98
2018-11-10T00:04:00.715Z,88.89
2018-11-10T00:06:32.545Z,88.74
2018-11-10T00:09:04.815Z,89.21
2018-11-10T00:11:38.883Z,90.16
2018-11-10T00:14:10.690Z,90.05
2018-11-10T00:16:42.717Z,90.26
2018-11-10T00:19:14.489Z,90.33
2018-11-10T00:21:46.298Z,90.07
2018-11-10T00:24:18.176Z,89.96
2018-11-10T00:26:49.974Z,89.92
2018-11-10T00:29:21.815Z,90.09
2018-11-10T00:31:53.628Z,89.76
2018-11-10T00:34:25.459Z,89.70
2018-11-10T00:36:57.257Z,89.45
2018-11-10T00:39:29.100Z,89.76
2018-11-10T00:42:00.930Z,89.58
2018-11-10T00:44:32.778Z,90.63
2018-11-10T00:47:04.583Z,91.02
2018-11-10T00:49:36.372Z,90.94
2018-11-10T00:52:08.166Z,90.12
2018-11-10T00:54:46.308Z,89.22
2018-11-10T00:57:18.125Z,89.66
2018-11-10T00:59:50.046Z,90.11
2018-11-10T01:02:21.842Z,89.55
2018-11-10T01:04:53.668Z,88.88
2018-11-10T01:07:25.471Z,89.23
2018-11-10T01:09:59.552Z,87.45
2018-11-10T01:12:29.278Z,88.64
2018-11-10T01:15:03.544Z,88.08
2018-11-10T01:17:40.657Z,87.74
2018-11-10T01:20:13.300Z,89.78
2018-11-10T01:22:45.224Z,88.71
2018-11-10T01:25:17.032Z,89.42
2018-11-10T01:27:48.862Z,89.02
2018-11-10T01:30:20.640Z,90.28
2018-11-10T01:32:52.428Z,89.03
2018-11-10T01:35:26.805Z,88.62
2018-11-10T01:37:58.598Z,89.92
2018-11-10T01:40:30.576Z,89.91
2018-11-10T01:43:02.384Z,89.76
2018-11-10T01:45:34.185Z,88.84
2018-11-10T01:48:06.252Z,88.14
2018-11-10T01:50:38.085Z,89.01
2018-11-10T01:53:09.948Z,89.15
2018-11-10T01:55:44.462Z,89.41
2018-11-10T01:58:18.768Z,88.63
2018-11-10T02:00:50.583Z,87.69
2018-11-10T02:03:22.410Z,87.37
2018-11-10T02:05:54.224Z,88.22
2018-11-10T02:08:26.009Z,87.33
2018-11-10T02:10:57.853Z,86.65
2018-11-10T02:13:29.644Z,87.03
2018-11-10T02:16:01.474Z,88.32
2018-11-10T02:18:33.280Z,87.46
2018-11-10T02:21:05.109Z,87.56
2018-11-10T02:23:36.918Z,87.62
2018-11-10T02:26:08.733Z,87.92
2018-11-10T02:28:40.522Z,89.24
2018-11-10T02:31:12.341Z,89.28
2018-11-10T02:33:44.198Z,89.65
2018-11-10T02:36:16.006Z,89.73
2018-11-10T02:38:47.871Z,89.57
2018-11-10T02:41:19.632Z,90.17
2018-11-10T02:43:51.445Z,89.56
2018-11-10T02:46:23.255Z,89.07
2018-11-10T02:48:55.072Z,88.25
2018-11-10T02:51:26.937Z,87.48
2018-11-10T02:53:58.718Z,87.03
2018-11-10T02:56:30.547Z,86.34
2018-11-10T02:59:04.718Z,88.13
2018-11-10T03:01:36.531Z,89.32
2018-11-10T03:04:08.698Z,88.54
2018-11-10T03:06:40.523Z,88.81
2018-11-10T03:09:12.312Z,88.16
2018-11-10T03:11:44.163Z,87.97
2018-11-10T03:14:15.968Z,88.80
2018-11-10T03:16:47.827Z,89.46
2018-11-10T03:19:19.637Z,88.96
2018-11-10T03:21:51.720Z,88.51
2018-11-10T03:24:26.527Z,88.27
2018-11-10T03:26:58.375Z,88.74
2018-11-10T03:29:30.205Z,89.64
2018-11-10T03:32:02.018Z,90.44
2018-11-10T03:34:33.817Z,89.03
2018-11-10T03:37:05.909Z,90.26
2018-11-10T03:39:37.721Z,91.26
2018-11-10T03:42:09.553Z,90.66
2018-11-10T03:44:41.351Z,91.04
2018-11-10T03:47:13.158Z,91.32
2018-11-10T03:49:45.008Z,90.97
2018-11-10T03:52:16.799Z,89.90
2018-11-10T03:54:48.621Z,90.22
2018-11-10T03:57:20.439Z,90.19
2018-11-10T03:59:52.304Z,90.48
2018-11-10T04:02:24.099Z,90.39
2018-11-10T04:04:58.852Z,90.57
2018-11-10T04:07:30.721Z,90.11
2018-11-10T04:10:02.564Z,90.32
2018-11-10T04:12:34.410Z,91.18
2018-11-10T04:15:06.473Z,90.51
2018-11-10T04:17:38.323Z,90.03
2018-11-10T04:20:11.119Z,89.83
2018-11-10T04:22:43.003Z,90.15
2018-11-10T04:25:14.897Z,89.73
2018-11-10T04:27:46.747Z,88.94
2018-11-10T04:30:18.533Z,88.86
2018-11-10T04:32:50.330Z,88.31
2018-11-10T04:35:22.124Z,88.64
2018-11-10T04:37:53.973Z,89.28
2018-11-10T04:40:25.763Z,89.12
2018-11-10T04:42:57.581Z,88.27
2018-11-10T04:45:29.394Z,88.50
2018-11-10T04:48:01.211Z,89.09
2018-11-10T04:50:33.021Z,89.23
2018-11-10T04:53:04.856Z,88.22
2018-11-10T04:55:36.656Z,88.29
2018-11-10T04:58:08.516Z,89.10
2018-11-10T05:00:40.301Z,90.43
2018-11-10T05:03:12.107Z,90.23
2018-11-10T05:05:43.880Z,90.99
2018-11-10T05:08:15.851Z,91.01
2018-11-10T05:10:47.655Z,91.37
2018-11-10T05:13:19.519Z,92.23
2018-11-10T05:15:51.351Z,90.36
2018-11-10T05:18:23.165Z,89.27
2018-11-10T05:20:54.958Z,89.79
2018-11-10T05:23:26.768Z,89.86
2018-11-10T05:25:58.582Z,90.20
2018-11-10T05:28:30.411Z,89.04
2018-11-10T05:31:02.282Z,89.10
2018-11-10T05:33:34.014Z,89.94
2018-11-10T05:36:05.952Z,90.32
2018-11-10T05:38:37.786Z,90.98
2018-11-10T05:41:09.591Z,91.74
2018-11-10T05:43:41.416Z,91.63
2018-11-10T05:46:13.235Z,90.85
2018-11-10T05:48:45.200Z,90.19
2018-11-10T05:51:17.018Z,91.39
2018-11-10T05:53:48.834Z,91.94
2018-11-10T05:56:20.626Z,91.74
2018-11-10T05:58:52.437Z,91.60
2018-11-10T06:01:24.257Z,90.25
2018-11-10T06:03:56.087Z,91.06
2018-11-10T06:06:27.919Z,91.36
2018-11-10T06:08:59.793Z,92.11
2018-11-10T06:11:31.534Z,91.32
2018-11-10T06:14:03.372Z,92.15
2018-11-10T06:16:35.319Z,92.57
2018-11-10T06:19:07.314Z,92.26
2018-11-10T06:21:39.211Z,91.38
2018-11-10T06:24:11.062Z,92.21
2018-11-10T06:26:42.864Z,91.68
2018-11-10T06:29:14.693Z,92.67
2018-11-10T06:31:46.580Z,91.70
2018-11-10T06:34:18.391Z,91.33
2018-11-10T06:36:50.202Z,91.35
2018-11-10T06:39:22.035Z,90.64
2018-11-10T06:41:53.852Z,90.72
2018-11-10T06:44:25.756Z,89.25
2018-11-10T06:46:57.525Z,90.52
2018-11-10T06:49:29.341Z,91.00
2018-11-10T06:52:01.245Z,91.73
2018-11-10T06:54:33.060Z,92.81
2018-11-10T06:57:04.996Z,91.97
2018-11-10T06:59:37.223Z,91.75
2018-11-10T07:02:09.643Z,91.76
2018-11-10T07:04:41.445Z,90.75
2018-11-10T07:07:13.220Z,90.71
2018-11-10T07:09:45.068Z,90.86
2018-11-10T07:12:16.927Z,91.24
2018-11-10T07:14:48.777Z,90.26
2018-11-10T07:17:20.624Z,90.48
2018-11-10T07:19:52.468Z,91.49
2018-11-10T07:22:24.321Z,90.38
2018-11-10T07:24:56.165Z,91.84
2018-11-10T07:27:27.979Z,91.75
2018-11-10T07:29:59.800Z,91.90
2018-11-10T07:32:31.619Z,90.61
2018-11-10T07:35:03.494Z,90.33
2018-11-10T07:37:35.494Z,89.69
2018-11-10T07:40:09.015Z,90.39
2018-11-10T07:42:40.804Z,91.18
2018-11-10T07:45:14.406Z,90.16
2018-11-10T07:47:46.744Z,90.03
2018-11-10T07:50:18.578Z,89.90
2018-11-10T07:52:50.360Z,89.97
2018-11-10T07:55:22.182Z,89.79
2018-11-10T07:57:54.133Z,90.17
2018-11-10T08:00:25.829Z,90.36
2018-11-10T08:02:57.709Z,90.26
2018-11-10T08:05:29.591Z,91.19
2018-11-10T08:08:01.431Z,89.96
2018-11-10T08:10:33.382Z,89.04
2018-11-10T08:13:05.321Z,89.69
2018-11-10T08:15:37.170Z,89.21
2018-11-10T08:18:09.003Z,89.67
2018-11-10T08:20:40.841Z,89.13
2018-11-10T08:23:12.654Z,88.43
2018-11-10T08:25:44.533Z,89.21
2018-11-10T08:28:18.667Z,89.90
2018-11-10T08:30:50.507Z,88.25
2018-11-10T08:33:22.378Z,89.03
2018-11-10T08:35:54.299Z,88.13
2018-11-10T08:38:26.174Z,87.78
2018-11-10T08:40:58.116Z,86.72
2018-11-10T08:43:29.897Z,87.40
2018-11-10T08:46:01.775Z,85.63
2018-11-10T08:48:33.617Z,86.51
2018-11-10T08:51:05.486Z,85.38
2018-11-10T08:53:37.329Z,85.25
2018-11-10T08:56:09.697Z,84.71
2018-11-10T08:58:41.957Z,84.64
2018-11-10T09:01:13.763Z,85.25
2018-11-10T09:03:46.654Z,85.14
2018-11-10T09:06:18.477Z,84.19
2018-11-10T09:08:51.570Z,84.81
2018-11-10T09:11:23.448Z,84.34
2018-11-10T09:13:55.384Z,82.95
2018-11-10T09:16:27.280Z,82.66
2018-11-10T09:18:59.484Z,83.41
2018-11-10T09:21:31.607Z,84.67
2018-11-10T09:24:03.512Z,83.80
2018-11-10T09:26:35.410Z,82.78
2018-11-10T09:29:07.745Z,83.55
2018-11-10T09:31:39.690Z,83.49
2018-11-10T09:34:13.890Z,83.26
2018-11-10T09:36:43.648Z,82.73
2018-11-10T09:39:15.504Z,82.43
2018-11-10T09:41:50.279Z,81.57
2018-11-10T09:44:22.329Z,80.36
2018-11-10T09:46:54.331Z,79.52
2018-11-10T09:49:26.397Z,79.06
2018-11-10T09:51:58.564Z,79.21
2018-11-10T09:54:30.456Z,80.82
2018-11-10T09:57:02.363Z,80.89
2018-11-10T09:59:36.899Z,80.69
2018-11-10T10:02:09.435Z,80.36
2018-11-10T10:04:41.035Z,80.01
2018-11-10T10:07:12.949Z,80.91
2018-11-10T10:09:44.856Z,80.88
2018-11-10T10:12:16.826Z,80.21
2018-11-10T10:14:49.009Z,80.42
2018-11-10T10:17:20.929Z,79.95
2018-11-10T10:19:53.118Z,79.32
2018-11-10T10:22:25.625Z,79.09
2018-11-10T10:24:57.344Z,78.97
2018-11-10T10:27:29.796Z,78.49
2018-11-10T10:30:03.972Z,77.77
2018-11-10T10:32:33.667Z,77.59
2018-11-10T10:35:05.571Z,77.49
2018-11-10T10:37:37.405Z,77.22
2018-11-10T10:40:11.980Z,76.54
2018-11-10T10:42:44.579Z,75.63
2018-11-10T10:45:25.667Z,75.37
2018-11-10T10:47:57.533Z,75.72
2018-11-10T10:50:29.362Z,76.75
2018-11-10T10:53:01.280Z,76.05
2018-11-10T10:55:33.356Z,75.65
2018-11-10T10:58:05.464Z,75.38
2018-11-10T11:00:54.575Z,74.85
2018-11-10T11:03:44.012Z,73.83
2018-11-10T11:06:15.939Z,73.21
2018-11-10T11:08:47.842Z,73.48
2018-11-10T11:11:19.705Z,72.79
2018-11-10T11:13:51.631Z,72.59
2018-11-10T11:16:23.669Z,72.13
2018-11-10T11:18:57.699Z,71.64
2018-11-10T11:21:29.508Z,71.13
2018-11-10T11:24:01.342Z,71.89
2018-11-10T11:26:33.994Z,71.88
2018-11-10T11:29:08.408Z,71.56
2018-11-10T11:31:40.197Z,70.31
2018-11-10T11:34:12.046Z,70.16
2018-11-10T11:36:43.874Z,69.58
2018-11-10T11:39:15.766Z,70.00
2018-11-10T11:41:47.657Z,69.59
2018-11-10T11:44:19.469Z,69.45
2018-11-10T11:46:51.596Z,69.14
2018-11-10T11:49:23.402Z,68.74
2018-11-10T11:51:55.361Z,68.75
2018-11-10T11:54:27.193Z,67.85
2018-11-10T11:56:59.026Z,67.68
2018-11-10T11:59:30.912Z,67.17
2018-11-10T12:02:02.883Z,66.97
2018-11-10T12:04:34.712Z,66.70
2018-11-10T12:07:07.010Z,66.30
2018-11-10T12:09:38.945Z,65.47
2018-11-10T12:12:10.769Z,66.14
2018-11-10T12:14:42.670Z,66.57
2018-11-10T12:17:14.538Z,66.21
2018-11-10T12:19:46.417Z,65.99
2018-11-10T12:22:18.292Z,65.80
2018-11-10T12:24:50.264Z,65.68
2018-11-10T12:27:22.164Z,65.10
2018-11-10T12:29:54.066Z,64.94
2018-11-10T12:32:25.970Z,65.04
2018-11-10T12:34:57.970Z,64.53
2018-11-10T12:37:29.870Z,64.32
2018-11-10T12:40:01.811Z,64.28
2018-11-10T12:42:33.654Z,63.83
2018-11-10T12:45:05.893Z,63.69
2018-11-10T12:47:41.316Z,63.02
2018-11-10T12:50:16.398Z,62.81
2018-11-10T12:52:48.240Z,62.59
2018-11-10T12:55:20.311Z,62.36
2018-11-10T12:57:52.205Z,62.81
2018-11-10T13:00:24.202Z,62.65
2018-11-10T13:02:56.290Z,62.55
2018-11-10T13:05:28.363Z,63.04
2018-11-10T13:08:00.231Z,63.22
2018-11-10T13:10:33.123Z,62.82
2018-11-10T13:13:04.970Z,62.90
2018-11-10T13:15:39.155Z,62.72
2018-11-10T13:18:08.765Z,63.10
2018-11-10T13:20:40.701Z,63.47
2018-11-10T13:23:12.583Z,63.02
2018-11-10T13:25:44.445Z,63.71
2018-11-10T13:28:16.616Z,63.55
2018-11-10T13:30:48.592Z,62.77
2018-11-10T13:33:20.333Z,63.84
2018-11-10T13:35:52.226Z,63.38
2018-11-10T13:38:24.087Z,64.72
2018-11-10T13:40:56.040Z,65.16
2018-11-10T13:43:27.890Z,65.33
2018-11-10T13:45:59.731Z,65.20
2018-11-10T13:48:31.632Z,66.32
2018-11-10T13:51:03.834Z,66.29
2018-11-10T13:53:35.356Z,65.97
2018-11-10T13:56:07.244Z,66.00
2018-11-10T13:58:39.051Z,65.90
2018-11-10T14:01:10.901Z,66.43
2018-11-10T14:03:45.496Z,67.30
2018-11-10T14:06:17.477Z,67.38
2018-11-10T14:08:49.335Z,68.08
2018-11-10T14:11:21.198Z,67.73
2018-11-10T14:13:53.089Z,68.36
2018-11-10T14:16:24.966Z,67.43
2018-11-10T14:18:56.784Z,68.12
2018-11-10T14:21:28.825Z,67.96
2018-11-10T14:24:00.661Z,67.42
2018-11-10T14:26:32.793Z,67.42
2018-11-10T14:29:04.625Z,67.43
2018-11-10T14:31:36.568Z,68.32
2018-11-10T14:34:08.646Z,68.12
2018-11-10T14:36:40.851Z,67.94
2018-11-10T14:39:12.960Z,68.37
2018-11-10T14:41:44.831Z,68.31
2018-11-10T14:44:16.722Z,68.14
2018-11-10T14:46:48.724Z,67.97
2018-11-10T14:49:20.570Z,68.54
2018-11-10T14:51:52.585Z,69.66
2018-11-10T14:54:24.451Z,72.09
2018-11-10T14:56:56.360Z,73.02
2018-11-10T14:59:28.244Z,74.14
2018-11-10T15:02:00.431Z,73.51
2018-11-10T15:04:32.384Z,75.03
2018-11-10T15:07:04.305Z,75.26
2018-11-10T15:09:36.447Z,76.37
2018-11-10T15:12:08.700Z,75.37
2018-11-10T15:14:40.642Z,75.98
2018-11-10T15:17:15.135Z,76.45
2018-11-10T15:19:46.957Z,76.68
2018-11-10T15:22:18.829Z,76.54
2018-11-10T15:24:50.659Z,77.22
2018-11-10T15:27:22.526Z,76.32
2018-11-10T15:29:54.449Z,77.21
2018-11-10T15:32:26.374Z,76.35
2018-11-10T15:34:58.247Z,76.36
2018-11-10T15:37:30.341Z,77.71
2018-11-10T15:40:02.159Z,78.01
2018-11-10T15:42:34.024Z,78.15
2018-11-10T15:45:05.961Z,78.23
2018-11-10T15:47:37.845Z,78.14
2018-11-10T15:50:11.763Z,78.38
2018-11-10T15:52:44.037Z,78.57
2018-11-10T15:55:15.961Z,77.73
2018-11-10T15:57:47.931Z,78.91
2018-11-10T16:00:20.819Z,79.35
2018-11-10T16:02:52.738Z,79.41
2018-11-10T16:05:24.647Z,79.86
2018-11-10T16:07:56.549Z,80.16
2018-11-10T16:10:28.636Z,80.35
2018-11-10T16:13:00.516Z,80.44
2018-11-10T16:15:32.387Z,80.21
2018-11-10T16:18:04.260Z,81.15
2018-11-10T16:20:36.179Z,81.36
2018-11-10T16:23:07.992Z,81.39
2018-11-10T16:25:39.904Z,80.91
2018-11-10T16:28:11.839Z,81.12
2018-11-10T16:30:43.686Z,81.27
2018-11-10T16:33:15.531Z,81.65
2018-11-10T16:35:47.409Z,81.71
2018-11-10T16:38:19.219Z,81.65
2018-11-10T16:40:51.026Z,82.30
2018-11-10T16:43:22.992Z,81.91
2018-11-10T16:45:54.831Z,81.99
2018-11-10T16:48:26.749Z,81.87
2018-11-10T16:50:58.580Z,82.29
2018-11-10T16:53:30.458Z,82.75
2018-11-10T16:56:02.342Z,82.58
2018-11-10T16:58:34.216Z,83.07
2018-11-10T17:01:06.193Z,82.51
2018-11-10T17:03:38.096Z,82.95
2018-11-10T17:06:10.087Z,82.77
2018-11-10T17:08:41.856Z,83.01
2018-11-10T17:11:13.632Z,83.41
2018-11-10T17:13:45.734Z,83.78
2018-11-10T17:16:17.537Z,82.93
2018-11-10T17:18:49.703Z,83.10
2018-11-10T17:21:21.501Z,82.61
2018-11-10T17:23:53.469Z,82.94
2018-11-10T17:26:25.293Z,82.82
2018-11-10T17:28:57.234Z,82.35
2018-11-10T17:31:30.815Z,82.91
2018-11-10T17:34:00.934Z,83.35
2018-11-10T17:36:32.734Z,82.77
2018-11-10T17:39:05.134Z,82.76
2018-11-10T17:41:36.856Z,83.62
2018-11-10T17:44:09.100Z,83.92
2018-11-10T17:46:43.606Z,84.03
2018-11-10T17:49:15.578Z,83.39
2018-11-10T17:51:47.403Z,83.64
2018-11-10T17:54:19.252Z,83.47
2018-11-10T17:56:51.123Z,83.98
2018-11-10T17:59:22.991Z,83.83
2018-11-10T18:01:54.938Z,83.66
2018-11-10T18:04:26.984Z,83.65
2018-11-10T18:06:58.804Z,83.14
2018-11-10T18:09:30.702Z,82.89
2018-11-10T18:12:02.544Z,84.04
2018-11-10T18:14:34.434Z,83.78
2018-11-10T18:17:06.317Z,84.16
2018-11-10T18:19:38.163Z,83.93
2018-11-10T18:22:10.194Z,83.36
2018-11-10T18:24:42.061Z,83.04
2018-11-10T18:27:13.897Z,82.94
2018-11-10T18:29:45.759Z,83.41
2018-11-10T18:32:17.776Z,83.50
2018-11-10T18:34:49.603Z,83.35
2018-11-10T18:37:21.449Z,83.48
2018-11-10T18:39:53.365Z,83.33
2018-11-10T18:42:25.143Z,83.54
2018-11-10T18:44:57.037Z,83.04
2018-11-10T18:47:28.917Z,82.86
2018-11-10T18:50:01.665Z,82.63
2018-11-10T18:52:33.467Z,83.47
2018-11-10T18:55:05.357Z,83.36
2018-11-10T18:57:37.351Z,83.31
2018-11-10T19:00:13.084Z,83.72
2018-11-10T19:02:44.885Z,82.81
2018-11-10T19:05:17.963Z,84.18
2018-11-10T19:07:49.774Z,84.50
2018-11-10T19:10:21.694Z,83.92
2018-11-10T19:12:53.591Z,83.54
2018-11-10T19:15:25.377Z,83.85
2018-11-10T19:17:57.219Z,84.41
2018-11-10T19:20:29.082Z,83.86
2018-11-10T19:23:00.989Z,84.19
2018-11-10T19:25:32.902Z,84.02
2018-11-10T19:28:04.714Z,83.88
2018-11-10T19:30:36.523Z,83.89
2018-11-10T19:33:08.660Z,84.28
2018-11-10T19:35:40.523Z,84.08
2018-11-10T19:38:12.532Z,83.82
2018-11-10T19:40:44.505Z,84.14
2018-11-10T19:43:16.910Z,84.36
2018-11-10T19:45:48.906Z,84.14
2018-11-10T19:48:20.880Z,84.30
2018-11-10T19:50:52.955Z,84.85
2018-11-10T19:53:24.842Z,84.80
2018-11-10T19:55:57.038Z,85.45
2018-11-10T19:58:28.909Z,85.13
2018-11-10T20:01:03.559Z,86.11
2018-11-10T20:03:35.411Z,84.35
2018-11-10T20:06:07.404Z,86.40
2018-11-10T20:08:39.249Z,86.68
2018-11-10T20:11:11.925Z,86.52
2018-11-10T20:13:44.059Z,86.77
2018-11-10T20:16:15.976Z,85.83
2018-11-10T20:18:48.215Z,85.88
2018-11-10T20:21:23.005Z,85.60
2018-11-10T20:23:54.856Z,85.78
2018-11-10T20:26:26.804Z,85.75
2018-11-10T20:29:01.441Z,85.54
2018-11-10T20:31:33.403Z,86.47
2018-11-10T20:34:07.404Z,85.76
2018-11-10T20:36:37.357Z,85.96
2018-11-10T20:39:11.289Z,86.34
2018-11-10T20:41:43.334Z,85.61
2018-11-10T20:44:15.381Z,85.83
2018-11-10T20:46:47.306Z,86.25
2018-11-10T20:49:19.132Z,85.88
2018-11-10T20:51:51.162Z,84.71
2018-11-10T20:54:23.119Z,84.94
2018-11-10T20:56:54.995Z,85.38
2018-11-10T20:59:26.850Z,85.83
2018-11-10T21:01:58.823Z,86.55
2018-11-10T21:04:30.677Z,86.56
2018-11-10T21:07:02.562Z,86.78
2018-11-10T21:09:34.387Z,86.75
2018-11-10T21:12:06.304Z,87.86
2018-11-10T21:14:38.180Z,87.48
2018-11-10T21:17:14.345Z,88.57
2018-11-10T21:19:46.204Z,88.38
2018-11-10T21:22:18.224Z,90.08
2018-11-10T21:24:50.102Z,90.74
2018-11-10T21:27:21.998Z,89.92
2018-11-10T21:29:53.902Z,90.16
2018-11-10T21:32:25.681Z,89.29
2018-11-10T21:34:57.549Z,90.10
2018-11-10T21:37:29.511Z,90.36
2018-11-10T21:40:01.369Z,90.31
2018-11-10T21:42:33.557Z,90.70
2018-11-10T21:45:06.068Z,90.13
2018-11-10T21:47:37.949Z,90.72
2018-11-10T21:50:12.722Z,91.92
2018-11-10T21:52:45.261Z,92.54
2018-11-10T21:55:18.347Z,91.75
2018-11-10T21:57:50.609Z,92.21
2018-11-10T22:00:23.258Z,91.59
2018-11-10T22:02:55.281Z,92.14
2018-11-10T22:05:27.401Z,92.81
2018-11-10T22:07:59.387Z,91.73
2018-11-10T22:10:31.572Z,92.02
2018-11-10T22:13:05.168Z,91.56
2018-11-10T22:15:35.316Z,92.07
2018-11-10T22:18:07.178Z,92.16
2018-11-10T22:20:39.064Z,91.72
2018-11-10T22:23:10.982Z,91.57
2018-11-10T22:25:42.710Z,90.81
2018-11-10T22:28:14.581Z,91.24
2018-11-10T22:30:46.453Z,91.90
2018-11-10T22:33:18.292Z,91.66
2018-11-10T22:35:50.089Z,91.96
2018-11-10T22:38:22.030Z,90.40
2018-11-10T22:40:53.844Z,90.58
2018-11-10T22:43:25.650Z,89.56
2018-11-10T22:45:57.471Z,90.42
2018-11-10T22:48:29.342Z,89.49
2018-11-10T22:51:01.166Z,88.79
2018-11-10T22:53:33.004Z,89.40
2018-11-10T22:56:04.823Z,91.03
2018-11-10T22:58:36.705Z,90.89
2018-11-10T23:01:10.082Z,90.96
2018-11-10T23:03:42.129Z,90.12
2018-11-10T23:06:13.901Z,91.56
2018-11-10T23:08:45.771Z,91.18
2018-11-10T23:11:17.553Z,91.40
2018-11-10T23:13:49.398Z,90.16
2018-11-10T23:16:21.260Z,90.54
2018-11-10T23:18:53.149Z,89.66
2018-11-10T23:21:25.002Z,90.67
2018-11-10T23:23:56.852Z,90.42
2018-11-10T23:26:28.652Z,89.06
2018-11-10T23:29:00.507Z,90.08
2018-11-10T23:31:32.310Z,89.35
2018-11-10T23:34:04.170Z,89.86
2018-11-10T23:36:35.992Z,89.70
2018-11-10T23:39:12.596Z,90.57
2018-11-10T23:41:44.414Z,90.99
2018-11-10T23:44:16.269Z,90.11
2018-11-10T23:46:48.093Z,91.00
2018-11-10T23:49:19.942Z,91.00
2018-11-10T23:51:51.776Z,89.64
2018-11-10T23:54:23.838Z,89.66
2018-11-10T23:56:55.698Z,90.69
2018-11-10T23:59:27.561Z,89.31
